sensor_id;sensor_type;location;lat;lon;timestamp;P1;durP1;ratioP1;P2;durP2;ratioP2
11735;SDS011;5924;51.398;7.088;2023-02-15T00:01:37;25.27;;;13.77;;
11735;SDS011;5924;51.398;7.088;2023-02-15T00:04:03;23.00;;;14.07;;
11735;SDS011;5924;51.398;7.088;2023-02-15T00:06:30;32.60;;;15.07;;
11735;SDS011;5924;51.398;7.088;2023-02-15T00:08:55;22.63;;;12.60;;
11735;SDS011;5924;51.398;7.088;2023-02-15T00:11:21;30.37;;;15.90;;
11735;SDS011;5924;51.398;7.088;2023-02-15T00:14:18;29.00;;;15.50;;
11735;SDS011;5924;51.398;7.088;2023-02-15T00:16:45;29.63;;;14.73;;
11735;SDS011;5924;51.398;7.088;2023-02-15T00:19:12;27.77;;;14.53;;
11735;SDS011;5924;51.398;7.088;2023-02-15T00:21:39;32.57;;;16.40;;
11735;SDS011;5924;51.398;7.088;2023-02-15T00:24:06;28.47;;;15.13;;
11735;SDS011;5924;51.398;7.088;2023-02-15T00:26:34;32.30;;;16.20;;
11735;SDS011;5924;51.398;7.088;2023-02-15T00:29:00;30.70;;;16.10;;
11735;SDS011;5924;51.398;7.088;2023-02-15T00:31:27;27.13;;;14.70;;
11735;SDS011;5924;51.398;7.088;2023-02-15T00:33:55;27.20;;;14.53;;
11735;SDS011;5924;51.398;7.088;2023-02-15T00:36:25;38.37;;;18.07;;
11735;SDS011;5924;51.398;7.088;2023-02-15T00:38:51;27.40;;;14.47;;
11735;SDS011;5924;51.398;7.088;2023-02-15T00:41:16;36.27;;;15.70;;
11735;SDS011;5924;51.398;7.088;2023-02-15T00:43:42;31.13;;;14.60;;
11735;SDS011;5924;51.398;7.088;2023-02-15T00:46:07;31.07;;;14.37;;
11735;SDS011;5924;51.398;7.088;2023-02-15T00:48:33;29.80;;;14.23;;
11735;SDS011;5924;51.398;7.088;2023-02-15T00:50:59;28.07;;;14.53;;
11735;SDS011;5924;51.398;7.088;2023-02-15T00:53:26;23.90;;;14.07;;
11735;SDS011;5924;51.398;7.088;2023-02-15T00:55:52;29.93;;;14.63;;
11735;SDS011;5924;51.398;7.088;2023-02-15T00:58:18;35.53;;;17.67;;
11735;SDS011;5924;51.398;7.088;2023-02-15T01:00:44;34.30;;;17.37;;
11735;SDS011;5924;51.398;7.088;2023-02-15T01:03:11;40.57;;;16.73;;
11735;SDS011;5924;51.398;7.088;2023-02-15T01:05:37;36.33;;;16.40;;
11735;SDS011;5924;51.398;7.088;2023-02-15T01:08:03;39.80;;;18.90;;
11735;SDS011;5924;51.398;7.088;2023-02-15T01:10:29;38.10;;;16.50;;
11735;SDS011;5924;51.398;7.088;2023-02-15T01:12:55;45.23;;;17.20;;
11735;SDS011;5924;51.398;7.088;2023-02-15T01:15:21;27.70;;;16.03;;
11735;SDS011;5924;51.398;7.088;2023-02-15T01:17:47;38.20;;;16.30;;
11735;SDS011;5924;51.398;7.088;2023-02-15T01:20:21;34.63;;;15.93;;
11735;SDS011;5924;51.398;7.088;2023-02-15T01:22:52;31.53;;;16.00;;
11735;SDS011;5924;51.398;7.088;2023-02-15T01:25:20;33.10;;;14.77;;
11735;SDS011;5924;51.398;7.088;2023-02-15T01:27:47;29.07;;;14.97;;
11735;SDS011;5924;51.398;7.088;2023-02-15T01:30:13;31.17;;;15.00;;
11735;SDS011;5924;51.398;7.088;2023-02-15T01:32:39;32.60;;;15.40;;
11735;SDS011;5924;51.398;7.088;2023-02-15T01:35:06;28.67;;;14.27;;
11735;SDS011;5924;51.398;7.088;2023-02-15T01:37:33;36.33;;;16.40;;
11735;SDS011;5924;51.398;7.088;2023-02-15T01:39:59;35.90;;;16.70;;
11735;SDS011;5924;51.398;7.088;2023-02-15T01:42:26;37.10;;;17.07;;
11735;SDS011;5924;51.398;7.088;2023-02-15T01:44:55;38.10;;;16.10;;
11735;SDS011;5924;51.398;7.088;2023-02-15T01:47:43;34.40;;;15.93;;
11735;SDS011;5924;51.398;7.088;2023-02-15T01:52:49;28.70;;;15.37;;
11735;SDS011;5924;51.398;7.088;2023-02-15T01:55:27;34.23;;;16.00;;
11735;SDS011;5924;51.398;7.088;2023-02-15T01:57:57;31.50;;;16.60;;
11735;SDS011;5924;51.398;7.088;2023-02-15T02:00:24;41.60;;;17.60;;
11735;SDS011;5924;51.398;7.088;2023-02-15T02:02:50;37.93;;;17.03;;
11735;SDS011;5924;51.398;7.088;2023-02-15T02:05:18;35.70;;;16.97;;
11735;SDS011;5924;51.398;7.088;2023-02-15T02:07:44;31.67;;;15.40;;
11735;SDS011;5924;51.398;7.088;2023-02-15T02:10:13;35.13;;;16.33;;
11735;SDS011;5924;51.398;7.088;2023-02-15T02:12:42;41.87;;;15.30;;
11735;SDS011;5924;51.398;7.088;2023-02-15T02:15:10;25.37;;;15.30;;
11735;SDS011;5924;51.398;7.088;2023-02-15T02:20:16;31.97;;;15.80;;
11735;SDS011;5924;51.398;7.088;2023-02-15T02:34:21;32.30;;;15.20;;
11735;SDS011;5924;51.398;7.088;2023-02-15T02:42:26;36.93;;;16.30;;
11735;SDS011;5924;51.398;7.088;2023-02-15T02:45:11;45.63;;;16.70;;
11735;SDS011;5924;51.398;7.088;2023-02-15T02:47:46;38.40;;;16.77;;
11735;SDS011;5924;51.398;7.088;2023-02-15T02:50:23;40.07;;;16.43;;
11735;SDS011;5924;51.398;7.088;2023-02-15T02:52:52;48.10;;;18.20;;
11735;SDS011;5924;51.398;7.088;2023-02-15T02:55:23;41.17;;;17.97;;
11735;SDS011;5924;51.398;7.088;2023-02-15T03:00:52;38.90;;;17.00;;
11735;SDS011;5924;51.398;7.088;2023-02-15T03:06:07;45.70;;;19.20;;
11735;SDS011;5924;51.398;7.088;2023-02-15T03:08:44;33.80;;;16.90;;
11735;SDS011;5924;51.398;7.088;2023-02-15T03:11:18;42.53;;;16.37;;
11735;SDS011;5924;51.398;7.088;2023-02-15T03:13:44;40.27;;;17.53;;
11735;SDS011;5924;51.398;7.088;2023-02-15T03:16:12;41.37;;;14.90;;
11735;SDS011;5924;51.398;7.088;2023-02-15T03:19:00;29.27;;;14.60;;
11735;SDS011;5924;51.398;7.088;2023-02-15T03:21:42;34.67;;;14.43;;
11735;SDS011;5924;51.398;7.088;2023-02-15T03:24:16;28.07;;;15.17;;
11735;SDS011;5924;51.398;7.088;2023-02-15T03:26:46;34.37;;;16.33;;
11735;SDS011;5924;51.398;7.088;2023-02-15T03:29:16;33.00;;;14.40;;
11735;SDS011;5924;51.398;7.088;2023-02-15T03:31:45;34.87;;;15.50;;
11735;SDS011;5924;51.398;7.088;2023-02-15T03:34:15;32.00;;;16.00;;
11735;SDS011;5924;51.398;7.088;2023-02-15T03:39:35;42.77;;;17.73;;
11735;SDS011;5924;51.398;7.088;2023-02-15T03:42:10;37.63;;;16.60;;
11735;SDS011;5924;51.398;7.088;2023-02-15T03:44:59;46.30;;;17.57;;
11735;SDS011;5924;51.398;7.088;2023-02-15T03:47:34;40.77;;;17.00;;
11735;SDS011;5924;51.398;7.088;2023-02-15T03:50:05;34.00;;;16.20;;
11735;SDS011;5924;51.398;7.088;2023-02-15T03:52:57;36.27;;;16.73;;
11735;SDS011;5924;51.398;7.088;2023-02-15T03:55:25;35.70;;;16.80;;
11735;SDS011;5924;51.398;7.088;2023-02-15T03:57:51;33.50;;;17.57;;
11735;SDS011;5924;51.398;7.088;2023-02-15T04:00:37;39.60;;;17.63;;
11735;SDS011;5924;51.398;7.088;2023-02-15T04:05:58;41.57;;;17.97;;
11735;SDS011;5924;51.398;7.088;2023-02-15T04:08:27;43.27;;;18.87;;
11735;SDS011;5924;51.398;7.088;2023-02-15T04:11:12;42.07;;;17.50;;
11735;SDS011;5924;51.398;7.088;2023-02-15T04:13:38;37.63;;;16.87;;
11735;SDS011;5924;51.398;7.088;2023-02-15T04:16:04;38.03;;;17.37;;
11735;SDS011;5924;51.398;7.088;2023-02-15T04:21:21;35.53;;;16.33;;
11735;SDS011;5924;51.398;7.088;2023-02-15T04:24:07;28.23;;;15.10;;
11735;SDS011;5924;51.398;7.088;2023-02-15T04:26:52;33.47;;;14.73;;
11735;SDS011;5924;51.398;7.088;2023-02-15T04:29:18;39.57;;;17.57;;
11735;SDS011;5924;51.398;7.088;2023-02-15T04:31:44;39.67;;;17.90;;
11735;SDS011;5924;51.398;7.088;2023-02-15T04:34:10;44.97;;;18.00;;
11735;SDS011;5924;51.398;7.088;2023-02-15T04:36:39;42.93;;;17.90;;
11735;SDS011;5924;51.398;7.088;2023-02-15T04:39:06;37.47;;;17.00;;
11735;SDS011;5924;51.398;7.088;2023-02-15T04:41:32;38.23;;;17.80;;
11735;SDS011;5924;51.398;7.088;2023-02-15T04:43:58;40.77;;;18.30;;
11735;SDS011;5924;51.398;7.088;2023-02-15T04:46:25;43.97;;;18.60;;
11735;SDS011;5924;51.398;7.088;2023-02-15T04:48:52;37.10;;;17.07;;
11735;SDS011;5924;51.398;7.088;2023-02-15T04:51:18;49.40;;;16.20;;
11735;SDS011;5924;51.398;7.088;2023-02-15T04:53:44;35.67;;;16.87;;
11735;SDS011;5924;51.398;7.088;2023-02-15T04:56:09;39.70;;;17.60;;
11735;SDS011;5924;51.398;7.088;2023-02-15T04:58:35;43.40;;;18.43;;
11735;SDS011;5924;51.398;7.088;2023-02-15T05:01:01;37.43;;;18.43;;
11735;SDS011;5924;51.398;7.088;2023-02-15T05:03:28;37.57;;;18.97;;
11735;SDS011;5924;51.398;7.088;2023-02-15T05:05:54;33.30;;;16.20;;
11735;SDS011;5924;51.398;7.088;2023-02-15T05:08:19;37.60;;;16.80;;
11735;SDS011;5924;51.398;7.088;2023-02-15T05:10:47;40.80;;;17.73;;
11735;SDS011;5924;51.398;7.088;2023-02-15T05:13:13;49.23;;;19.80;;
11735;SDS011;5924;51.398;7.088;2023-02-15T05:15:39;47.17;;;19.73;;
11735;SDS011;5924;51.398;7.088;2023-02-15T05:18:04;55.37;;;20.43;;
11735;SDS011;5924;51.398;7.088;2023-02-15T05:20:32;43.70;;;18.67;;
11735;SDS011;5924;51.398;7.088;2023-02-15T05:22:58;47.00;;;21.53;;
11735;SDS011;5924;51.398;7.088;2023-02-15T05:25:24;47.77;;;19.03;;
11735;SDS011;5924;51.398;7.088;2023-02-15T05:28:11;38.93;;;17.90;;
11735;SDS011;5924;51.398;7.088;2023-02-15T05:30:57;42.63;;;19.13;;
11735;SDS011;5924;51.398;7.088;2023-02-15T05:33:27;44.93;;;17.53;;
11735;SDS011;5924;51.398;7.088;2023-02-15T05:35:52;43.33;;;18.83;;
11735;SDS011;5924;51.398;7.088;2023-02-15T05:38:18;47.07;;;19.47;;
11735;SDS011;5924;51.398;7.088;2023-02-15T05:40:43;49.30;;;19.50;;
11735;SDS011;5924;51.398;7.088;2023-02-15T05:43:09;44.47;;;18.47;;
11735;SDS011;5924;51.398;7.088;2023-02-15T05:45:35;44.83;;;19.10;;
11735;SDS011;5924;51.398;7.088;2023-02-15T05:48:00;42.30;;;18.37;;
11735;SDS011;5924;51.398;7.088;2023-02-15T05:50:26;44.77;;;19.23;;
11735;SDS011;5924;51.398;7.088;2023-02-15T05:52:52;45.87;;;17.30;;
11735;SDS011;5924;51.398;7.088;2023-02-15T05:55:18;43.80;;;20.73;;
11735;SDS011;5924;51.398;7.088;2023-02-15T05:57:44;49.67;;;20.60;;
11735;SDS011;5924;51.398;7.088;2023-02-15T06:00:09;46.47;;;21.60;;
11735;SDS011;5924;51.398;7.088;2023-02-15T06:02:37;52.17;;;22.47;;
11735;SDS011;5924;51.398;7.088;2023-02-15T06:05:03;47.50;;;20.37;;
11735;SDS011;5924;51.398;7.088;2023-02-15T06:07:30;43.83;;;19.13;;
11735;SDS011;5924;51.398;7.088;2023-02-15T06:09:55;42.87;;;18.77;;
11735;SDS011;5924;51.398;7.088;2023-02-15T06:12:21;41.43;;;18.93;;
11735;SDS011;5924;51.398;7.088;2023-02-15T06:14:47;42.40;;;19.57;;
11735;SDS011;5924;51.398;7.088;2023-02-15T06:17:12;41.63;;;19.00;;
11735;SDS011;5924;51.398;7.088;2023-02-15T06:19:38;44.50;;;19.60;;
11735;SDS011;5924;51.398;7.088;2023-02-15T06:22:03;53.43;;;20.40;;
11735;SDS011;5924;51.398;7.088;2023-02-15T06:24:31;51.37;;;21.73;;
11735;SDS011;5924;51.398;7.088;2023-02-15T06:26:56;49.47;;;21.63;;
11735;SDS011;5924;51.398;7.088;2023-02-15T06:29:22;37.90;;;19.53;;
11735;SDS011;5924;51.398;7.088;2023-02-15T06:31:48;47.40;;;20.50;;
11735;SDS011;5924;51.398;7.088;2023-02-15T06:34:13;51.67;;;20.03;;
11735;SDS011;5924;51.398;7.088;2023-02-15T06:36:39;45.07;;;21.07;;
11735;SDS011;5924;51.398;7.088;2023-02-15T06:39:04;39.10;;;19.80;;
11735;SDS011;5924;51.398;7.088;2023-02-15T06:41:31;48.77;;;20.67;;
11735;SDS011;5924;51.398;7.088;2023-02-15T06:43:56;45.77;;;20.10;;
11735;SDS011;5924;51.398;7.088;2023-02-15T06:46:22;45.63;;;20.60;;
11735;SDS011;5924;51.398;7.088;2023-02-15T06:48:48;49.00;;;20.90;;
11735;SDS011;5924;51.398;7.088;2023-02-15T06:51:13;46.47;;;19.90;;
11735;SDS011;5924;51.398;7.088;2023-02-15T06:53:39;40.27;;;18.37;;
11735;SDS011;5924;51.398;7.088;2023-02-15T06:56:07;38.13;;;17.77;;
11735;SDS011;5924;51.398;7.088;2023-02-15T06:58:37;44.20;;;18.87;;
11735;SDS011;5924;51.398;7.088;2023-02-15T07:01:06;45.73;;;18.00;;
11735;SDS011;5924;51.398;7.088;2023-02-15T07:03:33;51.73;;;20.63;;
11735;SDS011;5924;51.398;7.088;2023-02-15T07:05:59;44.63;;;19.00;;
11735;SDS011;5924;51.398;7.088;2023-02-15T07:08:26;50.30;;;22.00;;
11735;SDS011;5924;51.398;7.088;2023-02-15T07:10:53;47.47;;;18.97;;
11735;SDS011;5924;51.398;7.088;2023-02-15T07:13:20;61.97;;;24.30;;
11735;SDS011;5924;51.398;7.088;2023-02-15T07:15:46;52.07;;;20.60;;
11735;SDS011;5924;51.398;7.088;2023-02-15T07:18:12;57.63;;;21.03;;
11735;SDS011;5924;51.398;7.088;2023-02-15T07:20:38;51.93;;;21.10;;
11735;SDS011;5924;51.398;7.088;2023-02-15T07:23:06;53.33;;;21.80;;
11735;SDS011;5924;51.398;7.088;2023-02-15T07:25:33;49.57;;;20.07;;
11735;SDS011;5924;51.398;7.088;2023-02-15T07:27:59;60.73;;;23.60;;
11735;SDS011;5924;51.398;7.088;2023-02-15T07:30:27;59.90;;;22.93;;
11735;SDS011;5924;51.398;7.088;2023-02-15T07:32:57;55.17;;;21.30;;
11735;SDS011;5924;51.398;7.088;2023-02-15T07:35:48;48.70;;;18.97;;
11735;SDS011;5924;51.398;7.088;2023-02-15T07:38:23;53.20;;;21.00;;
11735;SDS011;5924;51.398;7.088;2023-02-15T07:40:49;50.27;;;21.97;;
11735;SDS011;5924;51.398;7.088;2023-02-15T07:43:15;54.83;;;22.00;;
11735;SDS011;5924;51.398;7.088;2023-02-15T07:45:41;56.63;;;22.23;;
11735;SDS011;5924;51.398;7.088;2023-02-15T07:48:07;55.77;;;21.33;;
11735;SDS011;5924;51.398;7.088;2023-02-15T07:50:33;55.93;;;22.00;;
11735;SDS011;5924;51.398;7.088;2023-02-15T07:53:01;48.13;;;22.03;;
11735;SDS011;5924;51.398;7.088;2023-02-15T07:55:28;51.20;;;21.87;;
11735;SDS011;5924;51.398;7.088;2023-02-15T07:57:54;52.57;;;22.33;;
11735;SDS011;5924;51.398;7.088;2023-02-15T08:00:20;58.37;;;25.03;;
11735;SDS011;5924;51.398;7.088;2023-02-15T08:02:53;59.17;;;24.30;;
11735;SDS011;5924;51.398;7.088;2023-02-15T08:05:38;84.17;;;27.10;;
11735;SDS011;5924;51.398;7.088;2023-02-15T08:08:05;62.23;;;24.90;;
11735;SDS011;5924;51.398;7.088;2023-02-15T08:10:31;64.90;;;25.00;;
11735;SDS011;5924;51.398;7.088;2023-02-15T08:13:16;56.60;;;26.27;;
11735;SDS011;5924;51.398;7.088;2023-02-15T08:15:47;61.63;;;25.03;;
11735;SDS011;5924;51.398;7.088;2023-02-15T08:18:16;70.10;;;25.07;;
11735;SDS011;5924;51.398;7.088;2023-02-15T08:20:42;66.73;;;23.57;;
11735;SDS011;5924;51.398;7.088;2023-02-15T08:23:08;55.17;;;23.43;;
11735;SDS011;5924;51.398;7.088;2023-02-15T08:25:33;63.77;;;26.37;;
11735;SDS011;5924;51.398;7.088;2023-02-15T08:27:59;63.30;;;26.00;;
11735;SDS011;5924;51.398;7.088;2023-02-15T08:30:25;63.27;;;24.43;;
11735;SDS011;5924;51.398;7.088;2023-02-15T08:32:50;59.13;;;26.83;;
11735;SDS011;5924;51.398;7.088;2023-02-15T08:35:16;63.27;;;25.30;;
11735;SDS011;5924;51.398;7.088;2023-02-15T08:37:42;75.10;;;27.17;;
11735;SDS011;5924;51.398;7.088;2023-02-15T08:40:07;66.63;;;26.73;;
11735;SDS011;5924;51.398;7.088;2023-02-15T08:42:33;71.63;;;26.83;;
11735;SDS011;5924;51.398;7.088;2023-02-15T08:44:59;76.67;;;27.53;;
11735;SDS011;5924;51.398;7.088;2023-02-15T08:47:25;63.37;;;27.70;;
11735;SDS011;5924;51.398;7.088;2023-02-15T08:49:50;63.20;;;26.87;;
11735;SDS011;5924;51.398;7.088;2023-02-15T08:52:16;67.50;;;26.60;;
11735;SDS011;5924;51.398;7.088;2023-02-15T08:54:42;78.60;;;29.70;;
11735;SDS011;5924;51.398;7.088;2023-02-15T08:57:08;81.43;;;29.37;;
11735;SDS011;5924;51.398;7.088;2023-02-15T08:59:35;79.87;;;31.00;;
11735;SDS011;5924;51.398;7.088;2023-02-15T09:02:00;82.07;;;29.77;;
11735;SDS011;5924;51.398;7.088;2023-02-15T09:04:27;91.07;;;33.77;;
11735;SDS011;5924;51.398;7.088;2023-02-15T09:06:53;92.67;;;33.30;;
11735;SDS011;5924;51.398;7.088;2023-02-15T09:09:20;90.77;;;31.00;;
11735;SDS011;5924;51.398;7.088;2023-02-15T09:11:47;81.13;;;31.03;;
11735;SDS011;5924;51.398;7.088;2023-02-15T09:14:15;83.63;;;30.67;;
11735;SDS011;5924;51.398;7.088;2023-02-15T09:16:43;81.27;;;30.80;;
11735;SDS011;5924;51.398;7.088;2023-02-15T09:19:15;75.70;;;30.70;;
11735;SDS011;5924;51.398;7.088;2023-02-15T09:21:45;77.37;;;30.23;;
11735;SDS011;5924;51.398;7.088;2023-02-15T09:24:11;67.10;;;29.10;;
11735;SDS011;5924;51.398;7.088;2023-02-15T09:26:40;59.93;;;26.60;;
11735;SDS011;5924;51.398;7.088;2023-02-15T09:29:07;66.73;;;30.30;;
11735;SDS011;5924;51.398;7.088;2023-02-15T09:31:37;74.17;;;28.70;;
11735;SDS011;5924;51.398;7.088;2023-02-15T09:34:06;68.93;;;26.07;;
11735;SDS011;5924;51.398;7.088;2023-02-15T09:36:33;71.10;;;27.17;;
11735;SDS011;5924;51.398;7.088;2023-02-15T09:39:01;66.10;;;26.63;;
11735;SDS011;5924;51.398;7.088;2023-02-15T09:52:37;46.83;;;24.23;;
11735;SDS011;5924;51.398;7.088;2023-02-15T10:14:37;38.67;;;18.70;;
11735;SDS011;5924;51.398;7.088;2023-02-15T10:17:33;34.20;;;18.57;;
11735;SDS011;5924;51.398;7.088;2023-02-15T10:20:31;33.60;;;17.70;;
11735;SDS011;5924;51.398;7.088;2023-02-15T10:26:17;35.40;;;16.87;;
11735;SDS011;5924;51.398;7.088;2023-02-15T10:29:05;28.83;;;16.43;;
11735;SDS011;5924;51.398;7.088;2023-02-15T10:51:04;23.53;;;12.90;;
11735;SDS011;5924;51.398;7.088;2023-02-15T10:53:58;21.97;;;13.93;;
11735;SDS011;5924;51.398;7.088;2023-02-15T11:02:24;24.97;;;12.40;;
11735;SDS011;5924;51.398;7.088;2023-02-15T11:04:53;19.23;;;11.77;;
11735;SDS011;5924;51.398;7.088;2023-02-15T11:07:37;20.73;;;11.70;;
11735;SDS011;5924;51.398;7.088;2023-02-15T11:12:31;17.73;;;10.93;;
11735;SDS011;5924;51.398;7.088;2023-02-15T11:15:00;15.33;;;10.10;;
11735;SDS011;5924;51.398;7.088;2023-02-15T11:17:48;17.40;;;9.33;;
11735;SDS011;5924;51.398;7.088;2023-02-15T11:20:35;21.47;;;10.20;;
11735;SDS011;5924;51.398;7.088;2023-02-15T11:23:16;24.87;;;11.43;;
11735;SDS011;5924;51.398;7.088;2023-02-15T11:25:44;14.30;;;9.50;;
11735;SDS011;5924;51.398;7.088;2023-02-15T11:28:20;16.73;;;10.20;;
11735;SDS011;5924;51.398;7.088;2023-02-15T11:30:51;16.63;;;10.50;;
11735;SDS011;5924;51.398;7.088;2023-02-15T11:33:25;15.40;;;9.53;;
11735;SDS011;5924;51.398;7.088;2023-02-15T11:35:57;16.27;;;9.80;;
11735;SDS011;5924;51.398;7.088;2023-02-15T11:38:32;16.53;;;10.13;;
11735;SDS011;5924;51.398;7.088;2023-02-15T11:41:00;14.70;;;10.23;;
11735;SDS011;5924;51.398;7.088;2023-02-15T11:46:32;16.27;;;10.60;;
11735;SDS011;5924;51.398;7.088;2023-02-15T11:48:58;16.37;;;9.90;;
11735;SDS011;5924;51.398;7.088;2023-02-15T11:51:24;16.83;;;10.00;;
11735;SDS011;5924;51.398;7.088;2023-02-15T11:53:53;12.07;;;9.40;;
11735;SDS011;5924;51.398;7.088;2023-02-15T11:56:21;16.47;;;10.07;;
11735;SDS011;5924;51.398;7.088;2023-02-15T12:04:52;24.43;;;9.23;;
11735;SDS011;5924;51.398;7.088;2023-02-15T12:07:02;16.47;;;9.77;;
11735;SDS011;5924;51.398;7.088;2023-02-15T12:12:42;16.40;;;9.83;;
11735;SDS011;5924;51.398;7.088;2023-02-15T12:15:09;17.83;;;10.43;;
11735;SDS011;5924;51.398;7.088;2023-02-15T12:17:38;11.30;;;8.40;;
11735;SDS011;5924;51.398;7.088;2023-02-15T12:20:07;19.70;;;10.00;;
11735;SDS011;5924;51.398;7.088;2023-02-15T12:22:49;18.20;;;10.17;;
11735;SDS011;5924;51.398;7.088;2023-02-15T12:30:59;15.33;;;9.60;;
11735;SDS011;5924;51.398;7.088;2023-02-15T12:33:28;17.00;;;9.83;;
11735;SDS011;5924;51.398;7.088;2023-02-15T12:36:01;15.13;;;9.33;;
11735;SDS011;5924;51.398;7.088;2023-02-15T12:38:33;19.47;;;10.13;;
11735;SDS011;5924;51.398;7.088;2023-02-15T12:41:01;19.77;;;10.30;;
11735;SDS011;5924;51.398;7.088;2023-02-15T12:43:36;14.37;;;9.53;;
11735;SDS011;5924;51.398;7.088;2023-02-15T12:49:04;12.90;;;9.20;;
11735;SDS011;5924;51.398;7.088;2023-02-15T12:51:46;19.63;;;10.97;;
11735;SDS011;5924;51.398;7.088;2023-02-15T12:57:23;26.27;;;9.13;;
11735;SDS011;5924;51.398;7.088;2023-02-15T13:00:00;17.03;;;9.97;;
11735;SDS011;5924;51.398;7.088;2023-02-15T13:05:13;15.83;;;10.03;;
11735;SDS011;5924;51.398;7.088;2023-02-15T13:07:59;15.37;;;9.80;;
11735;SDS011;5924;51.398;7.088;2023-02-15T13:10:33;20.97;;;10.87;;
11735;SDS011;5924;51.398;7.088;2023-02-15T13:13:02;14.80;;;10.20;;
11735;SDS011;5924;51.398;7.088;2023-02-15T13:15:36;16.40;;;10.50;;
11735;SDS011;5924;51.398;7.088;2023-02-15T13:18:10;15.87;;;9.93;;
11735;SDS011;5924;51.398;7.088;2023-02-15T13:20:55;18.47;;;11.87;;
11735;SDS011;5924;51.398;7.088;2023-02-15T13:25:55;24.50;;;12.70;;
11735;SDS011;5924;51.398;7.088;2023-02-15T13:28:24;22.37;;;10.60;;
11735;SDS011;5924;51.398;7.088;2023-02-15T13:30:57;17.50;;;11.03;;
11735;SDS011;5924;51.398;7.088;2023-02-15T13:33:25;21.90;;;11.83;;
11735;SDS011;5924;51.398;7.088;2023-02-15T13:41:12;24.93;;;11.20;;
11735;SDS011;5924;51.398;7.088;2023-02-15T13:43:49;20.63;;;12.00;;
11735;SDS011;5924;51.398;7.088;2023-02-15T13:46:48;21.67;;;12.80;;
11735;SDS011;5924;51.398;7.088;2023-02-15T13:49:26;25.33;;;12.80;;
11735;SDS011;5924;51.398;7.088;2023-02-15T13:57:55;15.80;;;9.83;;
11735;SDS011;5924;51.398;7.088;2023-02-15T14:00:35;17.83;;;11.10;;
11735;SDS011;5924;51.398;7.088;2023-02-15T14:03:18;18.10;;;11.23;;
11735;SDS011;5924;51.398;7.088;2023-02-15T14:08:45;18.20;;;11.30;;
11735;SDS011;5924;51.398;7.088;2023-02-15T14:11:25;18.40;;;10.57;;
11735;SDS011;5924;51.398;7.088;2023-02-15T14:17:05;20.40;;;10.53;;
11735;SDS011;5924;51.398;7.088;2023-02-15T14:30:25;20.83;;;10.97;;
11735;SDS011;5924;51.398;7.088;2023-02-15T14:32:56;20.23;;;11.60;;
11735;SDS011;5924;51.398;7.088;2023-02-15T14:35:32;17.40;;;10.00;;
11735;SDS011;5924;51.398;7.088;2023-02-15T14:38:04;15.40;;;9.40;;
11735;SDS011;5924;51.398;7.088;2023-02-15T14:40:40;16.53;;;10.20;;
11735;SDS011;5924;51.398;7.088;2023-02-15T14:54:09;17.80;;;10.07;;
11735;SDS011;5924;51.398;7.088;2023-02-15T14:57:20;15.80;;;9.43;;
11735;SDS011;5924;51.398;7.088;2023-02-15T14:59:37;20.17;;;9.27;;
11735;SDS011;5924;51.398;7.088;2023-02-15T15:05:16;15.97;;;8.53;;
11735;SDS011;5924;51.398;7.088;2023-02-15T15:07:55;16.47;;;9.30;;
11735;SDS011;5924;51.398;7.088;2023-02-15T15:13:00;14.60;;;9.03;;
11735;SDS011;5924;51.398;7.088;2023-02-15T15:15:54;14.00;;;8.10;;
11735;SDS011;5924;51.398;7.088;2023-02-15T15:21:09;16.17;;;8.30;;
11735;SDS011;5924;51.398;7.088;2023-02-15T15:23:42;20.23;;;8.40;;
11735;SDS011;5924;51.398;7.088;2023-02-15T15:36:57;15.33;;;8.93;;
11735;SDS011;5924;51.398;7.088;2023-02-15T15:45:09;18.07;;;10.33;;
11735;SDS011;5924;51.398;7.088;2023-02-15T15:47:54;20.30;;;9.40;;
11735;SDS011;5924;51.398;7.088;2023-02-15T15:50:24;13.70;;;8.07;;
11735;SDS011;5924;51.398;7.088;2023-02-15T15:52:55;17.43;;;8.83;;
11735;SDS011;5924;51.398;7.088;2023-02-15T15:55:24;17.63;;;9.70;;
11735;SDS011;5924;51.398;7.088;2023-02-15T15:57:53;17.73;;;8.90;;
11735;SDS011;5924;51.398;7.088;2023-02-15T16:00:35;16.47;;;8.77;;
11735;SDS011;5924;51.398;7.088;2023-02-15T16:03:16;13.30;;;8.00;;
11735;SDS011;5924;51.398;7.088;2023-02-15T16:05:48;13.30;;;8.80;;
11735;SDS011;5924;51.398;7.088;2023-02-15T16:11:00;18.73;;;9.87;;
11735;SDS011;5924;51.398;7.088;2023-02-15T16:13:53;23.80;;;9.20;;
11735;SDS011;5924;51.398;7.088;2023-02-15T16:16:20;17.60;;;8.80;;
11735;SDS011;5924;51.398;7.088;2023-02-15T16:18:52;22.63;;;11.50;;
11735;SDS011;5924;51.398;7.088;2023-02-15T16:21:21;14.93;;;9.67;;
11735;SDS011;5924;51.398;7.088;2023-02-15T16:29:23;13.70;;;8.57;;
11735;SDS011;5924;51.398;7.088;2023-02-15T16:31:57;15.37;;;9.30;;
11735;SDS011;5924;51.398;7.088;2023-02-15T16:34:27;16.03;;;8.43;;
11735;SDS011;5924;51.398;7.088;2023-02-15T16:37:16;15.70;;;9.80;;
11735;SDS011;5924;51.398;7.088;2023-02-15T16:39:43;23.77;;;9.07;;
11735;SDS011;5924;51.398;7.088;2023-02-15T16:42:11;22.17;;;9.30;;
11735;SDS011;5924;51.398;7.088;2023-02-15T16:44:39;18.37;;;9.17;;
11735;SDS011;5924;51.398;7.088;2023-02-15T16:47:07;15.80;;;9.17;;
11735;SDS011;5924;51.398;7.088;2023-02-15T16:49:56;24.60;;;10.73;;
11735;SDS011;5924;51.398;7.088;2023-02-15T16:52:25;23.23;;;10.73;;
11735;SDS011;5924;51.398;7.088;2023-02-15T16:54:56;36.13;;;14.10;;
11735;SDS011;5924;51.398;7.088;2023-02-15T16:57:26;44.83;;;19.33;;
11735;SDS011;5924;51.398;7.088;2023-02-15T16:59:55;38.83;;;17.70;;
11735;SDS011;5924;51.398;7.088;2023-02-15T17:02:26;28.80;;;15.13;;
11735;SDS011;5924;51.398;7.088;2023-02-15T17:07:50;18.60;;;10.80;;
11735;SDS011;5924;51.398;7.088;2023-02-15T17:13:03;14.87;;;9.33;;
11735;SDS011;5924;51.398;7.088;2023-02-15T17:15:41;19.37;;;10.40;;
11735;SDS011;5924;51.398;7.088;2023-02-15T17:18:30;21.43;;;10.30;;
11735;SDS011;5924;51.398;7.088;2023-02-15T17:21:01;15.90;;;10.37;;
11735;SDS011;5924;51.398;7.088;2023-02-15T17:23:39;15.10;;;9.83;;
11735;SDS011;5924;51.398;7.088;2023-02-15T17:28:47;19.33;;;11.40;;
11735;SDS011;5924;51.398;7.088;2023-02-15T17:31:16;18.57;;;10.87;;
11735;SDS011;5924;51.398;7.088;2023-02-15T17:33:43;16.23;;;11.27;;
11735;SDS011;5924;51.398;7.088;2023-02-15T17:36:19;20.93;;;11.23;;
11735;SDS011;5924;51.398;7.088;2023-02-15T17:41:21;15.70;;;9.77;;
11735;SDS011;5924;51.398;7.088;2023-02-15T17:43:54;15.80;;;9.90;;
11735;SDS011;5924;51.398;7.088;2023-02-15T17:46:20;19.67;;;11.20;;
11735;SDS011;5924;51.398;7.088;2023-02-15T17:48:53;16.60;;;10.30;;
11735;SDS011;5924;51.398;7.088;2023-02-15T17:51:20;21.80;;;10.60;;
11735;SDS011;5924;51.398;7.088;2023-02-15T17:53:47;15.73;;;10.60;;
11735;SDS011;5924;51.398;7.088;2023-02-15T17:56:34;14.47;;;9.90;;
11735;SDS011;5924;51.398;7.088;2023-02-15T17:59:01;19.63;;;11.10;;
11735;SDS011;5924;51.398;7.088;2023-02-15T18:01:31;18.37;;;10.83;;
11735;SDS011;5924;51.398;7.088;2023-02-15T18:04:19;15.90;;;9.20;;
11735;SDS011;5924;51.398;7.088;2023-02-15T18:07:04;19.50;;;11.40;;
11735;SDS011;5924;51.398;7.088;2023-02-15T18:09:51;23.23;;;11.67;;
11735;SDS011;5924;51.398;7.088;2023-02-15T18:12:35;22.17;;;12.33;;
11735;SDS011;5924;51.398;7.088;2023-02-15T18:15:03;18.73;;;11.50;;
11735;SDS011;5924;51.398;7.088;2023-02-15T18:17:33;17.73;;;10.07;;
11735;SDS011;5924;51.398;7.088;2023-02-15T18:20:05;21.57;;;12.80;;
11735;SDS011;5924;51.398;7.088;2023-02-15T18:22:39;23.77;;;13.03;;
11735;SDS011;5924;51.398;7.088;2023-02-15T18:25:07;19.37;;;11.80;;
11735;SDS011;5924;51.398;7.088;2023-02-15T18:27:40;21.87;;;11.87;;